sensor_id;sensor_type;location;lat;lon;timestamp;pressure;altitude;pressure_sealevel;temperature;humidity
11011;BME280;5558;42.702;23.178;2023-01-27T00:01:16;92827.69;;;2.78;100.00
11011;BME280;5558;42.702;23.178;2023-01-27T00:03:42;92819.69;;;2.84;100.00
11011;BME280;5558;42.702;23.178;2023-01-27T00:06:09;92817.88;;;2.85;100.00
11011;BME280;5558;42.702;23.178;2023-01-27T00:08:37;92817.38;;;2.88;100.00
11011;BME280;5558;42.702;23.178;2023-01-27T00:11:03;92807.91;;;2.82;100.00
11011;BME280;5558;42.702;23.178;2023-01-27T00:13:49;92815.09;;;2.91;100.00
11011;BME280;5558;42.702;23.178;2023-01-27T00:16:15;92808.06;;;2.92;100.00
11011;BME280;5558;42.702;23.178;2023-01-27T00:18:42;92810.91;;;2.74;100.00
11011;BME280;5558;42.702;23.178;2023-01-27T00:21:08;92799.81;;;2.67;100.00
11011;BME280;5558;42.702;23.178;2023-01-27T00:23:52;92784.50;;;1.81;100.00
11011;BME280;5558;42.702;23.178;2023-01-27T00:26:36;92786.03;;;2.21;100.00
11011;BME280;5558;42.702;23.178;2023-01-27T00:29:04;92778.34;;;1.87;100.00
11011;BME280;5558;42.702;23.178;2023-01-27T00:31:30;92784.06;;;2.00;100.00
11011;BME280;5558;42.702;23.178;2023-01-27T00:34:14;92776.44;;;1.82;100.00
11011;BME280;5558;42.702;23.178;2023-01-27T00:36:41;92778.41;;;1.24;100.00
11011;BME280;5558;42.702;23.178;2023-01-27T00:39:08;92778.97;;;1.77;100.00
11011;BME280;5558;42.702;23.178;2023-01-27T00:41:35;92776.81;;;2.02;100.00
11011;BME280;5558;42.702;23.178;2023-01-27T00:44:03;92772.09;;;2.16;100.00
11011;BME280;5558;42.702;23.178;2023-01-27T00:46:31;92771.16;;;2.38;100.00
11011;BME280;5558;42.702;23.178;2023-01-27T00:48:58;92781.63;;;2.55;100.00
11011;BME280;5558;42.702;23.178;2023-01-27T00:51:24;92788.66;;;2.71;100.00
11011;BME280;5558;42.702;23.178;2023-01-27T00:53:50;92792.22;;;2.82;100.00
11011;BME280;5558;42.702;23.178;2023-01-27T00:56:17;92789.69;;;2.87;100.00
11011;BME280;5558;42.702;23.178;2023-01-27T00:58:43;92776.63;;;2.87;100.00
11011;BME280;5558;42.702;23.178;2023-01-27T01:01:12;92780.34;;;2.74;100.00
11011;BME280;5558;42.702;23.178;2023-01-27T01:03:39;92778.75;;;2.90;100.00
11011;BME280;5558;42.702;23.178;2023-01-27T01:06:06;92773.66;;;3.00;100.00
11011;BME280;5558;42.702;23.178;2023-01-27T01:08:33;92772.72;;;3.06;100.00
11011;BME280;5558;42.702;23.178;2023-01-27T01:11:00;92782.38;;;3.05;100.00
11011;BME280;5558;42.702;23.178;2023-01-27T01:13:27;92795.13;;;3.02;100.00
11011;BME280;5558;42.702;23.178;2023-01-27T01:15:53;92782.06;;;3.02;100.00
11011;BME280;5558;42.702;23.178;2023-01-27T01:18:21;92790.47;;;3.04;100.00
11011;BME280;5558;42.702;23.178;2023-01-27T01:20:48;92795.44;;;3.05;100.00
11011;BME280;5558;42.702;23.178;2023-01-27T01:23:15;92796.81;;;3.08;100.00
11011;BME280;5558;42.702;23.178;2023-01-27T01:25:41;92800.50;;;3.12;100.00
11011;BME280;5558;42.702;23.178;2023-01-27T01:28:08;92798.44;;;3.14;100.00
11011;BME280;5558;42.702;23.178;2023-01-27T01:30:35;92790.84;;;3.12;100.00
11011;BME280;5558;42.702;23.178;2023-01-27T01:33:02;92789.03;;;3.13;100.00
11011;BME280;5558;42.702;23.178;2023-01-27T01:35:30;92794.50;;;2.95;100.00
11011;BME280;5558;42.702;23.178;2023-01-27T01:37:56;92799.66;;;2.90;100.00
11011;BME280;5558;42.702;23.178;2023-01-27T01:40:23;92805.09;;;3.05;100.00
11011;BME280;5558;42.702;23.178;2023-01-27T01:42:53;92808.91;;;3.14;100.00
11011;BME280;5558;42.702;23.178;2023-01-27T01:48:09;92800.47;;;3.28;100.00
11011;BME280;5558;42.702;23.178;2023-01-27T01:50:39;92795.97;;;3.24;100.00
11011;BME280;5558;42.702;23.178;2023-01-27T01:53:06;92796.03;;;3.29;100.00
11011;BME280;5558;42.702;23.178;2023-01-27T01:55:33;92788.75;;;3.31;100.00
11011;BME280;5558;42.702;23.178;2023-01-27T01:58:02;92783.75;;;3.29;100.00
11011;BME280;5558;42.702;23.178;2023-01-27T02:00:30;92794.66;;;3.21;100.00
11011;BME280;5558;42.702;23.178;2023-01-27T02:02:56;92782.06;;;3.02;100.00
11011;BME280;5558;42.702;23.178;2023-01-27T02:05:25;92774.16;;;2.47;100.00
11011;BME280;5558;42.702;23.178;2023-01-27T02:07:56;92761.72;;;2.71;100.00
11011;BME280;5558;42.702;23.178;2023-01-27T02:10:23;92762.94;;;2.63;100.00
11011;BME280;5558;42.702;23.178;2023-01-27T02:12:49;92759.22;;;2.76;100.00
11011;BME280;5558;42.702;23.178;2023-01-27T02:15:16;92748.53;;;2.61;100.00
11011;BME280;5558;42.702;23.178;2023-01-27T02:17:42;92746.88;;;2.55;100.00
11011;BME280;5558;42.702;23.178;2023-01-27T02:20:11;92747.75;;;2.77;100.00
11011;BME280;5558;42.702;23.178;2023-01-27T02:22:42;92735.53;;;2.82;100.00
11011;BME280;5558;42.702;23.178;2023-01-27T02:25:15;92726.50;;;2.90;100.00
11011;BME280;5558;42.702;23.178;2023-01-27T02:27:46;92717.72;;;2.79;100.00
11011;BME280;5558;42.702;23.178;2023-01-27T02:30:12;92710.81;;;2.90;100.00
11011;BME280;5558;42.702;23.178;2023-01-27T02:32:39;92711.75;;;2.62;100.00
11011;BME280;5558;42.702;23.178;2023-01-27T02:35:05;92715.72;;;2.86;100.00
11011;BME280;5558;42.702;23.178;2023-01-27T02:37:34;92712.00;;;2.99;100.00
11011;BME280;5558;42.702;23.178;2023-01-27T02:40:01;92721.91;;;2.97;100.00
11011;BME280;5558;42.702;23.178;2023-01-27T02:42:28;92725.41;;;2.86;100.00
11011;BME280;5558;42.702;23.178;2023-01-27T02:44:56;92717.28;;;3.04;100.00
11011;BME280;5558;42.702;23.178;2023-01-27T02:47:22;92727.63;;;2.77;100.00
11011;BME280;5558;42.702;23.178;2023-01-27T02:49:49;92729.88;;;2.69;100.00
11011;BME280;5558;42.702;23.178;2023-01-27T02:52:15;92719.78;;;2.61;100.00
11011;BME280;5558;42.702;23.178;2023-01-27T02:54:41;92722.72;;;2.64;100.00
11011;BME280;5558;42.702;23.178;2023-01-27T02:57:08;92723.38;;;2.38;100.00
11011;BME280;5558;42.702;23.178;2023-01-27T02:59:34;92733.03;;;2.54;100.00
11011;BME280;5558;42.702;23.178;2023-01-27T03:02:02;92738.41;;;2.47;100.00
11011;BME280;5558;42.702;23.178;2023-01-27T03:04:29;92723.16;;;2.39;100.00
11011;BME280;5558;42.702;23.178;2023-01-27T03:06:55;92724.81;;;2.29;100.00
11011;BME280;5558;42.702;23.178;2023-01-27T03:09:22;92728.06;;;2.19;100.00
11011;BME280;5558;42.702;23.178;2023-01-27T03:11:48;92729.44;;;2.10;100.00
11011;BME280;5558;42.702;23.178;2023-01-27T03:14:32;92721.22;;;2.02;100.00
11011;BME280;5558;42.702;23.178;2023-01-27T03:17:17;92714.34;;;1.96;100.00
11011;BME280;5558;42.702;23.178;2023-01-27T03:20:01;92685.56;;;1.63;100.00
11011;BME280;5558;42.702;23.178;2023-01-27T03:22:28;92705.47;;;1.80;100.00
11011;BME280;5558;42.702;23.178;2023-01-27T03:24:54;92701.88;;;2.14;100.00
11011;BME280;5558;42.702;23.178;2023-01-27T03:27:21;92690.78;;;2.40;100.00
11011;BME280;5558;42.702;23.178;2023-01-27T03:29:47;92691.31;;;2.59;100.00
11011;BME280;5558;42.702;23.178;2023-01-27T03:32:21;92691.31;;;2.76;100.00
11011;BME280;5558;42.702;23.178;2023-01-27T03:34:48;92663.78;;;2.68;100.00
11011;BME280;5558;42.702;23.178;2023-01-27T03:37:14;92668.25;;;2.73;100.00
11011;BME280;5558;42.702;23.178;2023-01-27T03:39:58;92695.28;;;3.00;100.00
11011;BME280;5558;42.702;23.178;2023-01-27T03:42:42;92693.28;;;3.07;100.00
11011;BME280;5558;42.702;23.178;2023-01-27T03:45:26;92674.03;;;3.13;100.00
11011;BME280;5558;42.702;23.178;2023-01-27T03:48:12;92678.81;;;3.21;100.00
11011;BME280;5558;42.702;23.178;2023-01-27T03:50:38;92678.03;;;2.99;100.00
11011;BME280;5558;42.702;23.178;2023-01-27T03:53:07;92669.06;;;2.95;100.00
11011;BME280;5558;42.702;23.178;2023-01-27T03:55:34;92667.19;;;2.69;100.00
11011;BME280;5558;42.702;23.178;2023-01-27T03:58:01;92663.22;;;2.88;100.00
11011;BME280;5558;42.702;23.178;2023-01-27T04:00:38;92665.06;;;2.87;100.00
11011;BME280;5558;42.702;23.178;2023-01-27T04:03:05;92654.69;;;2.92;100.00
11011;BME280;5558;42.702;23.178;2023-01-27T04:05:50;92661.00;;;2.96;100.00
11011;BME280;5558;42.702;23.178;2023-01-27T04:08:34;92671.34;;;3.08;100.00
11011;BME280;5558;42.702;23.178;2023-01-27T04:11:01;92680.38;;;3.22;100.00
11011;BME280;5558;42.702;23.178;2023-01-27T04:13:41;92677.13;;;3.31;100.00
11011;BME280;5558;42.702;23.178;2023-01-27T04:16:07;92681.84;;;3.34;100.00
11011;BME280;5558;42.702;23.178;2023-01-27T04:18:34;92695.19;;;3.33;100.00
11011;BME280;5558;42.702;23.178;2023-01-27T04:21:03;92716.69;;;2.80;100.00
11011;BME280;5558;42.702;23.178;2023-01-27T04:23:30;92725.13;;;2.32;100.00
11011;BME280;5558;42.702;23.178;2023-01-27T04:25:56;92722.66;;;2.09;100.00
11011;BME280;5558;42.702;23.178;2023-01-27T04:28:24;92728.53;;;2.16;100.00
11011;BME280;5558;42.702;23.178;2023-01-27T04:30:51;92731.84;;;2.28;100.00
11011;BME280;5558;42.702;23.178;2023-01-27T04:33:18;92733.19;;;2.31;100.00
11011;BME280;5558;42.702;23.178;2023-01-27T04:35:44;92740.09;;;2.54;100.00
11011;BME280;5558;42.702;23.178;2023-01-27T04:38:12;92747.97;;;2.75;100.00
11011;BME280;5558;42.702;23.178;2023-01-27T04:40:39;92755.75;;;2.70;100.00
11011;BME280;5558;42.702;23.178;2023-01-27T04:43:06;92759.38;;;2.86;100.00
11011;BME280;5558;42.702;23.178;2023-01-27T04:45:33;92758.25;;;2.82;100.00
11011;BME280;5558;42.702;23.178;2023-01-27T04:47:59;92763.47;;;2.98;100.00
11011;BME280;5558;42.702;23.178;2023-01-27T04:50:26;92763.22;;;3.00;100.00
11011;BME280;5558;42.702;23.178;2023-01-27T04:52:52;92763.28;;;3.05;100.00
11011;BME280;5558;42.702;23.178;2023-01-27T04:55:20;92762.59;;;3.09;100.00
11011;BME280;5558;42.702;23.178;2023-01-27T04:57:47;92751.94;;;3.16;100.00
11011;BME280;5558;42.702;23.178;2023-01-27T05:00:13;92749.91;;;3.01;100.00
11011;BME280;5558;42.702;23.178;2023-01-27T05:02:40;92747.75;;;3.15;100.00
11011;BME280;5558;42.702;23.178;2023-01-27T05:05:07;92764.66;;;3.29;100.00
11011;BME280;5558;42.702;23.178;2023-01-27T05:07:33;92772.13;;;3.20;100.00
11011;BME280;5558;42.702;23.178;2023-01-27T05:10:00;92744.88;;;3.16;100.00
11011;BME280;5558;42.702;23.178;2023-01-27T05:12:28;92741.38;;;3.06;100.00
11011;BME280;5558;42.702;23.178;2023-01-27T05:14:54;92757.25;;;3.21;100.00
11011;BME280;5558;42.702;23.178;2023-01-27T05:17:21;92752.88;;;3.26;100.00
11011;BME280;5558;42.702;23.178;2023-01-27T05:19:47;92747.94;;;3.30;100.00
11011;BME280;5558;42.702;23.178;2023-01-27T05:22:13;92745.38;;;3.13;100.00
11011;BME280;5558;42.702;23.178;2023-01-27T05:24:40;92752.63;;;3.28;100.00
11011;BME280;5558;42.702;23.178;2023-01-27T05:27:06;92752.75;;;3.38;100.00
11011;BME280;5558;42.702;23.178;2023-01-27T05:29:34;92739.44;;;3.01;100.00
11011;BME280;5558;42.702;23.178;2023-01-27T05:32:01;92741.44;;;3.11;100.00
11011;BME280;5558;42.702;23.178;2023-01-27T05:34:27;92743.19;;;3.27;100.00
11011;BME280;5558;42.702;23.178;2023-01-27T05:36:53;92731.16;;;3.04;100.00
11011;BME280;5558;42.702;23.178;2023-01-27T05:39:20;92736.63;;;3.24;100.00
11011;BME280;5558;42.702;23.178;2023-01-27T05:41:46;92737.00;;;3.33;100.00
11011;BME280;5558;42.702;23.178;2023-01-27T05:44:13;92719.34;;;3.23;100.00
11011;BME280;5558;42.702;23.178;2023-01-27T05:46:41;92720.66;;;3.21;100.00
11011;BME280;5558;42.702;23.178;2023-01-27T05:49:07;92736.53;;;3.36;100.00
11011;BME280;5558;42.702;23.178;2023-01-27T05:51:34;92723.00;;;3.44;100.00
11011;BME280;5558;42.702;23.178;2023-01-27T05:54:01;92715.22;;;3.49;100.00
11011;BME280;5558;42.702;23.178;2023-01-27T05:56:28;92709.81;;;3.55;100.00
11011;BME280;5558;42.702;23.178;2023-01-27T05:58:55;92720.31;;;3.60;100.00
11011;BME280;5558;42.702;23.178;2023-01-27T06:01:23;92730.22;;;3.53;100.00
11011;BME280;5558;42.702;23.178;2023-01-27T06:03:51;92742.13;;;3.06;100.00
11011;BME280;5558;42.702;23.178;2023-01-27T06:06:19;92737.47;;;3.30;100.00
11011;BME280;5558;42.702;23.178;2023-01-27T06:08:46;92737.91;;;3.43;100.00
11011;BME280;5558;42.702;23.178;2023-01-27T06:11:13;92745.59;;;3.50;100.00
11011;BME280;5558;42.702;23.178;2023-01-27T06:13:39;92745.34;;;3.51;100.00
11011;BME280;5558;42.702;23.178;2023-01-27T06:16:07;92725.06;;;3.42;100.00
11011;BME280;5558;42.702;23.178;2023-01-27T06:18:33;92751.47;;;3.62;100.00
11011;BME280;5558;42.702;23.178;2023-01-27T06:21:02;92745.41;;;3.56;100.00
11011;BME280;5558;42.702;23.178;2023-01-27T06:23:29;92736.69;;;3.51;100.00
11011;BME280;5558;42.702;23.178;2023-01-27T06:25:59;92740.66;;;3.53;100.00
11011;BME280;5558;42.702;23.178;2023-01-27T06:28:26;92750.47;;;3.03;100.00
11011;BME280;5558;42.702;23.178;2023-01-27T06:30:53;92743.09;;;3.00;100.00
11011;BME280;5558;42.702;23.178;2023-01-27T06:33:19;92728.34;;;2.89;100.00
11011;BME280;5558;42.702;23.178;2023-01-27T06:35:46;92762.38;;;2.78;100.00
11011;BME280;5558;42.702;23.178;2023-01-27T06:38:14;92752.09;;;2.38;100.00
11011;BME280;5558;42.702;23.178;2023-01-27T06:40:40;92752.50;;;2.30;100.00
11011;BME280;5558;42.702;23.178;2023-01-27T06:43:09;92752.00;;;2.16;100.00
11011;BME280;5558;42.702;23.178;2023-01-27T06:45:36;92749.00;;;2.41;100.00
11011;BME280;5558;42.702;23.178;2023-01-27T06:48:02;92732.38;;;2.47;100.00
11011;BME280;5558;42.702;23.178;2023-01-27T06:50:29;92762.75;;;2.86;100.00
11011;BME280;5558;42.702;23.178;2023-01-27T06:52:58;92769.63;;;3.09;100.00
11011;BME280;5558;42.702;23.178;2023-01-27T06:55:25;92756.94;;;3.17;100.00
11011;BME280;5558;42.702;23.178;2023-01-27T06:57:52;92757.50;;;3.19;100.00
11011;BME280;5558;42.702;23.178;2023-01-27T07:00:19;92754.16;;;3.24;100.00
11011;BME280;5558;42.702;23.178;2023-01-27T07:02:45;92752.81;;;3.05;100.00
11011;BME280;5558;42.702;23.178;2023-01-27T07:05:12;92766.00;;;2.93;100.00
11011;BME280;5558;42.702;23.178;2023-01-27T07:07:38;92766.69;;;3.05;100.00
11011;BME280;5558;42.702;23.178;2023-01-27T07:10:05;92767.59;;;2.94;100.00
11011;BME280;5558;42.702;23.178;2023-01-27T07:12:34;92767.03;;;2.92;100.00
11011;BME280;5558;42.702;23.178;2023-01-27T07:15:02;92770.56;;;3.03;100.00
11011;BME280;5558;42.702;23.178;2023-01-27T07:17:28;92772.09;;;2.99;100.00
11011;BME280;5558;42.702;23.178;2023-01-27T07:19:55;92758.19;;;3.15;100.00
11011;BME280;5558;42.702;23.178;2023-01-27T07:22:21;92757.94;;;3.33;100.00
11011;BME280;5558;42.702;23.178;2023-01-27T07:24:48;92765.59;;;3.61;100.00
11011;BME280;5558;42.702;23.178;2023-01-27T07:27:14;92766.06;;;3.80;100.00
11011;BME280;5558;42.702;23.178;2023-01-27T07:29:42;92771.91;;;3.87;99.83
11011;BME280;5558;42.702;23.178;2023-01-27T07:32:08;92769.66;;;3.95;99.17
11011;BME280;5558;42.702;23.178;2023-01-27T07:34:35;92776.25;;;4.03;98.93
11011;BME280;5558;42.702;23.178;2023-01-27T07:37:01;92764.22;;;4.02;98.17
11011;BME280;5558;42.702;23.178;2023-01-27T07:39:29;92771.56;;;4.05;97.41
11011;BME280;5558;42.702;23.178;2023-01-27T07:41:55;92758.22;;;3.80;97.68
11011;BME280;5558;42.702;23.178;2023-01-27T07:44:23;92759.31;;;4.10;97.28
11011;BME280;5558;42.702;23.178;2023-01-27T07:46:50;92762.94;;;4.31;96.22
11011;BME280;5558;42.702;23.178;2023-01-27T07:49:17;92769.28;;;4.40;95.73
11011;BME280;5558;42.702;23.178;2023-01-27T07:51:43;92767.69;;;4.07;97.08
11011;BME280;5558;42.702;23.178;2023-01-27T07:54:10;92777.91;;;4.09;96.80
11011;BME280;5558;42.702;23.178;2023-01-27T07:56:36;92775.91;;;3.94;94.63
11011;BME280;5558;42.702;23.178;2023-01-27T07:59:03;92769.25;;;3.60;95.91
11011;BME280;5558;42.702;23.178;2023-01-27T08:01:29;92764.16;;;3.97;95.38
11011;BME280;5558;42.702;23.178;2023-01-27T08:03:58;92768.13;;;3.78;93.44
11011;BME280;5558;42.702;23.178;2023-01-27T08:06:25;92764.75;;;4.04;92.80
11011;BME280;5558;42.702;23.178;2023-01-27T08:08:51;92771.31;;;3.58;95.88
11011;BME280;5558;42.702;23.178;2023-01-27T08:11:18;92763.91;;;3.12;98.39
11011;BME280;5558;42.702;23.178;2023-01-27T08:13:44;92770.50;;;3.14;98.12
11011;BME280;5558;42.702;23.178;2023-01-27T08:16:11;92759.31;;;3.19;97.81
11011;BME280;5558;42.702;23.178;2023-01-27T08:18:38;92757.66;;;3.13;98.73
11011;BME280;5558;42.702;23.178;2023-01-27T08:21:06;92762.63;;;2.60;100.00
11011;BME280;5558;42.702;23.178;2023-01-27T08:23:34;92742.84;;;2.30;100.00
11011;BME280;5558;42.702;23.178;2023-01-27T08:26:02;92761.81;;;2.59;100.00
11011;BME280;5558;42.702;23.178;2023-01-27T08:28:29;92768.00;;;2.36;100.00
11011;BME280;5558;42.702;23.178;2023-01-27T08:31:02;92779.31;;;2.42;100.00
11011;BME280;5558;42.702;23.178;2023-01-27T08:33:28;92777.47;;;2.26;100.00
11011;BME280;5558;42.702;23.178;2023-01-27T08:35:55;92779.78;;;2.22;100.00
11011;BME280;5558;42.702;23.178;2023-01-27T08:38:23;92746.78;;;1.72;100.00
11011;BME280;5558;42.702;23.178;2023-01-27T08:40:49;92771.91;;;1.50;100.00
11011;BME280;5558;42.702;23.178;2023-01-27T08:43:15;92780.47;;;1.62;100.00
11011;BME280;5558;42.702;23.178;2023-01-27T08:45:42;92779.13;;;1.59;100.00
11011;BME280;5558;42.702;23.178;2023-01-27T08:48:09;92774.59;;;1.55;100.00
11011;BME280;5558;42.702;23.178;2023-01-27T08:50:36;92774.09;;;1.69;100.00
11011;BME280;5558;42.702;23.178;2023-01-27T08:53:02;92776.94;;;1.68;100.00
11011;BME280;5558;42.702;23.178;2023-01-27T08:55:31;92778.34;;;1.87;100.00
11011;BME280;5558;42.702;23.178;2023-01-27T08:57:58;92784.22;;;1.94;100.00
11011;BME280;5558;42.702;23.178;2023-01-27T09:00:24;92786.84;;;2.10;100.00
11011;BME280;5558;42.702;23.178;2023-01-27T09:02:51;92787.81;;;2.04;100.00
11011;BME280;5558;42.702;23.178;2023-01-27T09:05:18;92785.13;;;2.16;100.00
11011;BME280;5558;42.702;23.178;2023-01-27T09:07:46;92786.06;;;2.10;100.00
11011;BME280;5558;42.702;23.178;2023-01-27T09:10:13;92786.34;;;2.25;100.00
11011;BME280;5558;42.702;23.178;2023-01-27T09:12:41;92789.31;;;2.45;100.00
11011;BME280;5558;42.702;23.178;2023-01-27T09:15:08;92778.59;;;2.30;100.00
11011;BME280;5558;42.702;23.178;2023-01-27T09:17:35;92773.22;;;2.36;100.00
11011;BME280;5558;42.702;23.178;2023-01-27T09:20:02;92773.31;;;2.75;100.00
11011;BME280;5558;42.702;23.178;2023-01-27T09:22:28;92771.66;;;2.69;100.00
11011;BME280;5558;42.702;23.178;2023-01-27T09:24:55;92776.81;;;2.64;100.00
11011;BME280;5558;42.702;23.178;2023-01-27T09:27:21;92781.25;;;3.01;100.00
11011;BME280;5558;42.702;23.178;2023-01-27T09:29:49;92784.63;;;2.80;100.00
11011;BME280;5558;42.702;23.178;2023-01-27T09:32:15;92779.16;;;2.82;100.00
11011;BME280;5558;42.702;23.178;2023-01-27T09:34:42;92767.38;;;3.17;100.00
11011;BME280;5558;42.702;23.178;2023-01-27T09:37:09;92756.28;;;2.39;100.00
11011;BME280;5558;42.702;23.178;2023-01-27T09:39:36;92758.53;;;2.64;100.00
11011;BME280;5558;42.702;23.178;2023-01-27T09:45:02;92757.22;;;2.83;100.00
11011;BME280;5558;42.702;23.178;2023-01-27T09:47:39;92746.13;;;2.92;100.00
11011;BME280;5558;42.702;23.178;2023-01-27T09:50:20;92750.34;;;2.77;100.00
11011;BME280;5558;42.702;23.178;2023-01-27T09:53:06;92738.25;;;2.37;100.00
11011;BME280;5558;42.702;23.178;2023-01-27T09:55:39;92750.34;;;2.77;100.00
11011;BME280;5558;42.702;23.178;2023-01-27T09:58:08;92749.31;;;2.61;100.00
11011;BME280;5558;42.702;23.178;2023-01-27T10:00:44;92729.31;;;2.33;100.00
11011;BME280;5558;42.702;23.178;2023-01-27T10:03:16;92723.00;;;2.29;100.00
11011;BME280;5558;42.702;23.178;2023-01-27T10:06:01;92728.38;;;2.39;100.00
11011;BME280;5558;42.702;23.178;2023-01-27T10:08:37;92724.38;;;2.04;100.00
11011;BME280;5558;42.702;23.178;2023-01-27T10:11:11;92724.63;;;1.74;100.00
11011;BME280;5558;42.702;23.178;2023-01-27T10:13:43;92719.63;;;1.56;100.00
11011;BME280;5558;42.702;23.178;2023-01-27T10:19:04;92709.09;;;1.23;100.00
11011;BME280;5558;42.702;23.178;2023-01-27T10:21:35;92716.25;;;1.44;100.00
11011;BME280;5558;42.702;23.178;2023-01-27T10:24:10;92718.19;;;1.37;100.00
11011;BME280;5558;42.702;23.178;2023-01-27T10:26:40;92715.03;;;1.47;100.00
11011;BME280;5558;42.702;23.178;2023-01-27T10:29:07;92712.44;;;1.63;100.00
11011;BME280;5558;42.702;23.178;2023-01-27T10:31:35;92712.50;;;1.52;100.00
11011;BME280;5558;42.702;23.178;2023-01-27T10:34:05;92710.19;;;1.39;100.00
11011;BME280;5558;42.702;23.178;2023-01-27T10:36:37;92707.69;;;1.32;100.00
11011;BME280;5558;42.702;23.178;2023-01-27T10:39:09;92713.50;;;1.62;100.00
11011;BME280;5558;42.702;23.178;2023-01-27T10:41:40;92703.09;;;1.95;100.00
11011;BME280;5558;42.702;23.178;2023-01-27T10:44:13;92698.94;;;2.11;100.00
11011;BME280;5558;42.702;23.178;2023-01-27T10:46:46;92712.31;;;2.14;100.00
11011;BME280;5558;42.702;23.178;2023-01-27T10:49:18;92711.56;;;2.52;100.00
11011;BME280;5558;42.702;23.178;2023-01-27T10:51:49;92699.72;;;2.44;100.00
11011;BME280;5558;42.702;23.178;2023-01-27T10:54:20;92700.44;;;2.40;100.00
11011;BME280;5558;42.702;23.178;2023-01-27T10:56:48;92702.59;;;2.81;100.00
11011;BME280;5558;42.702;23.178;2023-01-27T10:59:30;92719.72;;;2.56;100.00
11011;BME280;5558;42.702;23.178;2023-01-27T11:02:02;92693.69;;;2.77;100.00
11011;BME280;5558;42.702;23.178;2023-01-27T11:04:33;92718.84;;;3.21;100.00
11011;BME280;5558;42.702;23.178;2023-01-27T11:07:03;92711.44;;;2.97;100.00
11011;BME280;5558;42.702;23.178;2023-01-27T11:09:31;92714.72;;;2.71;100.00
11011;BME280;5558;42.702;23.178;2023-01-27T11:12:00;92714.72;;;2.87;100.00
11011;BME280;5558;42.702;23.178;2023-01-27T11:14:28;92718.06;;;2.66;100.00
11011;BME280;5558;42.702;23.178;2023-01-27T11:16:58;92715.72;;;2.31;100.00
11011;BME280;5558;42.702;23.178;2023-01-27T11:19:33;92711.69;;;2.57;100.00
11011;BME280;5558;42.702;23.178;2023-01-27T11:22:01;92712.03;;;2.66;100.00
11011;BME280;5558;42.702;23.178;2023-01-27T11:24:31;92709.50;;;2.87;100.00
11011;BME280;5558;42.702;23.178;2023-01-27T11:27:01;92707.94;;;2.53;100.00
11011;BME280;5558;42.702;23.178;2023-01-27T11:29:31;92705.50;;;2.13;100.00
11011;BME280;5558;42.702;23.178;2023-01-27T11:32:00;92705.16;;;2.10;100.00
11011;BME280;5558;42.702;23.178;2023-01-27T11:34:30;92705.66;;;2.07;100.00
11011;BME280;5558;42.702;23.178;2023-01-27T11:36:59;92700.34;;;1.85;100.00
11011;BME280;5558;42.702;23.178;2023-01-27T11:39:27;92700.75;;;1.94;100.00
11011;BME280;5558;42.702;23.178;2023-01-27T11:41:57;92691.28;;;1.32;100.00
11011;BME280;5558;42.702;23.178;2023-01-27T11:44:25;92683.00;;;1.35;100.00
11011;BME280;5558;42.702;23.178;2023-01-27T11:46:52;92691.69;;;1.40;100.00
11011;BME280;5558;42.702;23.178;2023-01-27T11:49:22;92689.44;;;1.32;100.00
11011;BME280;5558;42.702;23.178;2023-01-27T11:51:50;92699.31;;;1.58;100.00
11011;BME280;5558;42.702;23.178;2023-01-27T11:54:21;92680.84;;;1.32;100.00
11011;BME280;5558;42.702;23.178;2023-01-27T11:56:49;92683.50;;;1.48;100.00
11011;BME280;5558;42.702;23.178;2023-01-27T11:59:18;92684.41;;;1.54;100.00
11011;BME280;5558;42.702;23.178;2023-01-27T12:01:52;92686.63;;;1.62;100.00
11011;BME280;5558;42.702;23.178;2023-01-27T12:04:23;92692.28;;;1.87;100.00
11011;BME280;5558;42.702;23.178;2023-01-27T12:06:58;92689.19;;;1.90;100.00
11011;BME280;5558;42.702;23.178;2023-01-27T12:09:34;92684.75;;;1.90;100.00
11011;BME280;5558;42.702;23.178;2023-01-27T12:12:10;92677.19;;;1.89;100.00
11011;BME280;5558;42.702;23.178;2023-01-27T12:14:37;92686.53;;;2.18;100.00
11011;BME280;5558;42.702;23.178;2023-01-27T12:17:05;92686.94;;;2.26;100.00
11011;BME280;5558;42.702;23.178;2023-01-27T12:19:35;92684.31;;;2.43;100.00
11011;BME280;5558;42.702;23.178;2023-01-27T12:22:07;92684.63;;;2.13;100.00
11011;BME280;5558;42.702;23.178;2023-01-27T12:24:39;92693.78;;;1.99;100.00
11011;BME280;5558;42.702;23.178;2023-01-27T12:27:19;92684.53;;;1.92;100.00
11011;BME280;5558;42.702;23.178;2023-01-27T12:29:49;92686.81;;;1.88;100.00
11011;BME280;5558;42.702;23.178;2023-01-27T12:32:22;92689.44;;;2.05;100.00
11011;BME280;5558;42.702;23.178;2023-01-27T12:34:51;92674.41;;;1.79;100.00
11011;BME280;5558;42.702;23.178;2023-01-27T12:37:23;92674.81;;;2.04;100.00
11011;BME280;5558;42.702;23.178;2023-01-27T12:39:55;92665.09;;;2.32;100.00
11011;BME280;5558;42.702;23.178;2023-01-27T12:42:42;92676.41;;;2.38;100.00
11011;BME280;5558;42.702;23.178;2023-01-27T12:45:22;92677.72;;;2.40;100.00
11011;BME280;5558;42.702;23.178;2023-01-27T12:47:59;92677.00;;;2.28;100.00
11011;BME280;5558;42.702;23.178;2023-01-27T12:50:28;92688.66;;;2.04;100.00
11011;BME280;5558;42.702;23.178;2023-01-27T12:53:03;92681.06;;;2.03;100.00
11011;BME280;5558;42.702;23.178;2023-01-27T12:55:34;92688.50;;;2.11;100.00
11011;BME280;5558;42.702;23.178;2023-01-27T12:58:00;92664.44;;;1.76;100.00
11011;BME280;5558;42.702;23.178;2023-01-27T13:00:27;92675.34;;;2.39;100.00
11011;BME280;5558;42.702;23.178;2023-01-27T13:02:57;92686.19;;;2.31;100.00
11011;BME280;5558;42.702;23.178;2023-01-27T13:05:26;92678.91;;;2.00;100.00
11011;BME280;5558;42.702;23.178;2023-01-27T13:07:53;92689.03;;;1.96;100.00
11011;BME280;5558;42.702;23.178;2023-01-27T13:10:20;92692.13;;;2.10;100.00
11011;BME280;5558;42.702;23.178;2023-01-27T13:12:49;92687.94;;;1.92;100.00
11011;BME280;5558;42.702;23.178;2023-01-27T13:15:17;92684.25;;;1.60;100.00
11011;BME280;5558;42.702;23.178;2023-01-27T13:17:45;92679.00;;;1.44;100.00